Air Navigation Services of Czech Republic
Airport: LKPJ Updated:  28.10.2020 05:00:25  UTC
 METAR LKPJ 28.10. 05:00 ...
METAR LKPJ 280500Z AUTO 29002KT 3200 BR OVC025 08/07 Q1015=